Latest Coastal Weather Observations for Tewantin

IDQ60701

Issued at 3:55 pm EST Saturday 20 September 2014 (issued every 10 minutes, with the page automatically refreshed every 10 minutes)

About coastal observations | Map of coastal stations | Coastal observations for QLD | Marine services | Other Formats
Station Details ID: 040908 Name: TEWANTIN RSL PARK Lat: -26.39 Lon: 153.04 Height: 6.4 m
Data from the previous 72 hours. | See also: Recent months at Tewantin
Date/Time
EST
Temp

°C
Wind Pressure Rain
since 9am
mm
Weather Cloud Vis
km
Sea
Height
m
Swell
Dir
 
Speed
knots
Gust
knots
hPa Trend Height
m
Period
s
Dir
20/03:30pm 20.6 ESE 6 9 1018.4 - 0.0 - - - - - - -
20/03:00pm 20.7 ESE 7 10 1018.5 - 0.0 - - - - - - -
20/02:30pm 20.4 SE 7 11 1018.5 - 0.0 - - - - - - -
20/02:00pm 19.8 SE 8 13 1018.7 - 0.0 - - - - - - -
20/01:30pm 20.4 SE 8 13 1018.6 - 0.0 - - - - - - -
20/01:00pm 20.2 S 8 15 1019.1 - 0.0 - - - - - - -
20/12:30pm 21.1 SE 8 14 1019.1 - 0.0 - - - - - - -
20/12:00pm 21.8 ESE 10 13 1019.2 - 0.0 - - - - - - -
20/11:30am 24.4 N 5 9 1019.5 - 0.0 - - - - - - -
20/11:00am 23.3 N 4 7 1020.0 - 0.0 - - - - - - -
20/10:30am 22.8 N 4 7 1020.4 - 0.0 - - - - - - -
20/10:00am 23.0 N 6 9 1020.7 - 0.0 - - - - - - -
20/09:30am 22.8 NNW 5 9 1021.0 - 0.0 - - - - - - -
20/09:00am 22.6 NNW 4 7 1021.1 - 0.0 - - - - - - -
20/08:30am 21.2 NNW 3 6 1021.1 - 0.0 - - - - - - -
20/08:00am 19.9 WNW 3 4 1020.9 - 0.0 - - - - - - -
20/07:30am 17.6 NW 2 4 1020.6 - 0.0 - - - - - - -
20/07:00am 15.7 CALM 0 0 1020.2 - 0.0 - - - - - - -
20/06:30am 13.7 CALM 0 0 1019.8 - 0.0 - - - - - - -
20/06:00am 12.6 CALM 0 0 1019.5 - 0.0 - - - - - - -
20/05:30am 12.7 CALM 0 0 1019.1 - 0.0 - - - - - - -
20/05:00am 12.8 CALM 0 0 1018.9 - 0.0 - - - - - - -
20/04:30am 12.9 CALM 0 0 1018.5 - 0.0 - - - - - - -
20/04:00am 13.0 CALM 0 0 1018.5 - 0.0 - - - - - - -
20/03:30am 13.4 CALM 0 0 1018.4 - 0.0 - - - - - - -
20/03:00am 13.4 CALM 0 0 1018.3 - 0.0 - - - - - - -
20/02:30am 13.6 CALM 0 0 1018.5 - 0.0 - - - - - - -
20/02:00am 13.6 CALM 0 0 1018.5 - 0.0 - - - - - - -
20/01:30am 14.0 CALM 0 0 1018.7 - 0.0 - - - - - - -
20/01:00am 14.5 CALM 0 0 1018.8 - 0.0 - - - - - - -
20/12:30am 14.9 CALM 0 0 1019.2 - 0.0 - - - - - - -
20/12:00am 15.3 W 0 0 1019.5 - 0.0 - - - - - - -
 
Date/Time
EST
Temp

°C
Wind Pressure Rain
since 9am
mm
Weather Cloud Vis
km
Sea
Height
m
Swell
Dir
 
Speed
knots
Gust
knots
hPa Trend Height
m
Period
s
Dir
19/11:30pm 15.3 CALM 0 0 1019.8 - 0.0 - - - - - - -
19/11:00pm 15.2 CALM 0 0 1019.7 - 0.0 - - - - - - -
19/10:30pm 15.7 CALM 0 0 1019.6 - 0.0 - - - - - - -
19/10:00pm 15.8 CALM 0 3 1019.5 - 0.0 - - - - - - -
19/09:30pm 16.6 CALM 0 0 1019.6 - 0.0 - - - - - - -
19/09:00pm 17.2 CALM 0 0 1019.5 - 0.0 - - - - - - -
19/08:30pm 18.2 WNW 1 3 1019.6 - 0.0 - - - - - - -
19/08:00pm 19.3 NNW 4 6 1019.5 - 0.0 - - - - - - -
19/07:30pm 19.7 N 5 7 1019.2 - 0.0 - - - - - - -
19/07:00pm 19.8 N 3 4 1019.0 - 0.0 - - - - - - -
19/06:30pm 19.9 NNE 4 7 1018.3 - 0.0 - - - - - - -
19/06:00pm 20.3 NNE 7 9 1017.7 - 0.0 - - - - - - -
19/05:30pm 20.6 NNE 9 14 1017.3 - 0.0 - - - - - - -
19/05:00pm 21.0 NNE 10 14 1016.9 - 0.0 - - - - - - -
19/04:30pm 21.4 NE 9 13 1016.8 - 0.0 - - - - - - -
19/04:00pm 21.8 NE 9 14 1016.8 - 0.0 - - - - - - -
19/03:30pm 22.1 NE 9 16 1016.6 - 0.0 - - - - - - -
19/03:00pm 22.4 NE 9 14 1016.5 - 0.0 - - - - - - -
19/02:30pm 22.1 NE 11 16 1016.5 - 0.0 - - - - - - -
19/02:00pm 22.2 NE 9 17 1016.8 - 0.0 - - - - - - -
19/01:30pm 22.7 NE 11 18 1017.3 - 0.0 - - - - - - -
19/01:00pm 22.7 NE 10 14 1017.9 - 0.0 - - - - - - -
19/12:30pm 22.5 NNE 10 15 1018.5 - 0.0 - - - - - - -
19/12:00pm 22.5 NNE 10 15 1019.0 - 0.0 - - - - - - -
19/11:30am 23.0 NE 9 12 1019.5 - 0.0 - - - - - - -
19/11:00am 22.6 NNE 6 11 1020.1 - 0.0 - - - - - - -
19/10:30am 22.8 N 5 8 1020.6 - 0.0 - - - - - - -
19/10:00am 21.9 N 6 9 1020.9 - 0.0 - - - - - - -
19/09:30am 21.8 NNW 5 9 1021.2 - 0.0 - - - - - - -
19/09:00am 21.3 NNW 4 7 1021.3 - 0.0 - - - - - - -
19/08:30am 20.1 SW 1 4 1021.5 - 0.0 - - - - - - -
19/08:00am 18.1 NNW 3 5 1021.4 - 0.0 - - - - - - -
19/07:30am 15.7 N 4 4 1021.3 - 0.0 - - - - - - -
19/07:00am 14.0 WNW 1 4 1021.0 - 0.0 - - - - - - -
19/06:30am 12.7 CALM 0 0 1020.6 - 0.0 - - - - - - -
19/06:00am 11.2 CALM 0 0 1020.2 - 0.0 - - - - - - -
19/05:30am 11.0 CALM 0 0 1020.0 - 0.0 - - - - - - -
19/05:00am 11.2 CALM 0 0 1019.6 - 0.0 - - - - - - -
19/04:30am 11.1 CALM 0 0 1019.6 - 0.0 - - - - - - -
19/04:00am 11.2 CALM 0 0 1019.5 - 0.0 - - - - - - -
19/03:30am 11.0 CALM 0 0 1019.4 - 0.0 - - - - - - -
19/03:00am 11.5 CALM 0 0 1019.2 - 0.0 - - - - - - -
19/02:30am 11.7 CALM 0 0 1019.2 - 0.0 - - - - - - -
19/02:00am 12.0 CALM 0 0 1019.1 - 0.0 - - - - - - -
19/01:30am 11.9 CALM 0 0 1019.4 - 0.0 - - - - - - -
19/01:00am 12.2 CALM 0 0 1019.4 - 0.0 - - - - - - -
19/12:30am 12.6 CALM 0 0 1019.6 - 0.0 - - - - - - -
19/12:00am 12.8 SSW 1 4 1019.7 - 0.0 - - - - - - -
 
Date/Time
EST
Temp

°C
Wind Pressure Rain
since 9am
mm
Weather Cloud Vis
km
Sea
Height
m
Swell
Dir
 
Speed
knots
Gust
knots
hPa Trend Height
m
Period
s
Dir
18/11:30pm 12.7 CALM 0 0 1019.9 - 0.0 - - - - - - -
18/11:00pm 13.4 CALM 0 0 1020.0 - 0.0 - - - - - - -
18/10:30pm 13.9 CALM 0 0 1020.0 - 0.0 - - - - - - -
18/10:00pm 13.7 CALM 0 0 1020.0 - 0.0 - - - - - - -
18/09:30pm 14.0 CALM 0 0 1019.9 - 0.0 - - - - - - -
18/09:00pm 14.5 CALM 0 3 1019.8 - 0.0 - - - - - - -
18/08:30pm 15.3 SW 3 4 1019.5 - 0.0 - - - - - - -
18/08:00pm 16.0 SW 4 5 1019.2 - 0.0 - - - - - - -
18/07:30pm 17.0 CALM 0 0 1018.9 - 0.0 - - - - - - -
18/07:00pm 17.6 CALM 0 0 1018.3 - 0.0 - - - - - - -
18/06:30pm 18.7 N 2 4 1018.1 - 0.0 - - - - - - -
18/06:00pm 19.4 NNE 4 5 1017.7 - 0.0 - - - - - - -
18/05:30pm 20.2 NNE 5 9 1017.4 - 0.0 - - - - - - -
18/05:00pm 20.7 ENE 5 10 1016.9 - 0.0 - - - - - - -
18/04:30pm 21.2 ENE 7 10 1016.5 - 0.0 - - - - - - -
18/04:00pm 21.7 ENE 7 10 1016.1 - 0.0 - - - - - - -
18/03:30pm 22.0 E 7 11 1015.9 - 0.0 - - - - - - -
18/03:00pm 22.2 E 8 12 1015.9 - 0.0 - - - - - - -
18/02:30pm 22.6 ENE 7 12 1015.9 - 0.0 - - - - - - -
18/02:00pm 22.3 ESE 8 12 1016.1 - 0.0 - - - - - - -
18/01:30pm 22.6 E 9 13 1016.4 - 0.0 - - - - - - -
18/01:00pm 22.6 ESE 9 13 1016.7 - 0.0 - - - - - - -
18/12:30pm 23.5 SE 5 8 1017.2 - 0.0 - - - - - - -
18/12:00pm 24.6 S 7 13 1017.7 - 0.0 - - - - - - -
18/11:30am 24.6 S 8 14 1018.1 - 0.0 - - - - - - -
18/11:00am 24.1 SSW 6 12 1018.6 - 0.0 - - - - - - -
18/10:30am 23.7 S 9 14 1019.0 - 0.0 - - - - - - -
18/10:00am 22.4 S 9 17 1019.2 - 0.0 - - - - - - -
18/09:30am 22.9 S 10 17 1019.5 - 0.0 - - - - - - -
18/09:00am 22.2 S 8 13 1019.5 - 0.0 - - - - - - -
18/08:30am 21.9 S 7 11 1019.4 - 0.0 - - - - - - -
18/08:00am 20.9 SSW 6 8 1019.1 - 0.0 - - - - - - -
18/07:30am 19.4 SW 2 4 1019.0 - 0.0 - - - - - - -
18/07:00am 16.4 CALM 0 0 1018.6 - 0.0 - - - - - - -
18/06:30am 14.0 CALM 0 0 1018.2 - 0.0 - - - - - - -
18/06:00am 12.9 CALM 0 0 1018.0 - 0.0 - - - - - - -
18/05:30am 12.9 CALM 0 0 1017.7 - 0.0 - - - - - - -
18/05:00am 12.9 CALM 0 0 1017.3 - 0.0 - - - - - - -
18/04:30am 13.6 CALM 0 0 1017.0 - 0.0 - - - - - - -
18/04:00am 13.8 SW 1 3 1016.6 - 0.0 - - - - - - -
18/03:30am 13.7 CALM 0 0 1016.2 - 0.0 - - - - - - -
18/03:00am 13.9 CALM 0 0 1016.0 - 0.0 - - - - - - -
18/02:30am 14.6 CALM 0 0 1015.7 - 0.0 - - - - - - -
18/02:00am 15.2 WNW 3 5 1015.7 - 0.0 - - - - - - -
18/01:30am 16.2 W 1 3 1015.6 - 0.0 - - - - - - -
18/01:00am 16.8 WNW 2 4 1015.5 - 0.0 - - - - - - -
18/12:30am 16.6 NW 2 4 1015.5 - 0.0 - - - - - - -
18/12:00am 16.7 WNW 2 5 1015.3 - 0.0 - - - - - - -
 
Date/Time
EST
Temp

°C
Wind Pressure Rain
since 9am
mm
Weather Cloud Vis
km
Sea
Height
m
Swell
Dir
 
Speed
knots
Gust
knots
hPa Trend Height
m
Period
s
Dir
17/11:30pm 17.1 WNW 3 6 1015.2 - 0.0 - - - - - - -
17/11:00pm 17.7 W 1 4 1014.9 - 0.0 - - - - - - -
17/10:30pm 18.0 W 2 4 1015.0 - 0.0 - - - - - - -
17/10:00pm 18.4 W 3 5 1014.9 - 0.0 - - - - - - -
17/09:30pm 18.9 NW 5 8 1014.8 - 0.0 - - - - - - -
17/09:00pm 19.6 NW 6 9 1014.5 - 0.0 - - - - - - -
17/08:30pm 20.1 NNW 5 9 1014.1 - 0.0 - - - - - - -
17/08:00pm 20.7 NNW 5 8 1013.9 - 0.0 - - - - - - -
17/07:30pm 21.0 NNW 5 8 1013.6 - 0.0 - - - - - - -
17/07:00pm 21.6 NW 4 7 1013.2 - 0.0 - - - - - - -
17/06:30pm 22.3 NNW 8 10 1012.5 - 0.0 - - - - - - -
17/06:00pm 22.8 N 8 11 1011.9 - 0.0 - - - - - - -
17/05:30pm 22.5 CALM 0 3 1011.5 - 0.0 - - - - - - -
17/05:00pm 23.2 NNW 3 8 1011.3 - 0.0 - - - - - - -
17/04:30pm 23.8 NNE 8 13 1011.1 - 0.0 - - - - - - -
17/04:00pm 24.3 NNE 7 12 1011.1 - 0.0 - - - - - - -

Other Formats:

Comma delimited format used in spreadsheet applications
http://www.bom.gov.au/fwo/IDQ60701/IDQ60701.94570.axf

JavaScript Object Notation format (JSON) in row-major order
http://www.bom.gov.au/fwo/IDQ60701/IDQ60701.94570.json